Time;durP1;ratioP1;P1;durP2;ratioP2;P2;SDS_P1;SDS_P2;PMS_P1;PMS_P2;Temp;Humidity;BMP_temperature;BMP_pressure;BME280_temperature;BME280_humidity;BME280_pressure;Samples;Min_cycle;Max_cycle;Signal;HPM_P1;HPM_P2
2022/03/01 00:01:45;;;;;;;24.50;14.65;;;;;;;;;;4824448;29;20058;-63
2022/03/01 00:04:11;;;;;;;25.65;15.43;;;;;;;;;;4822922;29;20054;-63
2022/03/01 00:06:38;;;;;;;25.65;15.70;;;;;;;;;;4823105;29;20503;-63
2022/03/01 00:09:05;;;;;;;25.02;14.57;;;;;;;;;;4822127;29;20054;-63
2022/03/01 00:11:35;;;;;;;27.23;15.55;;;;;;;;;;4824791;29;20515;-64
2022/03/01 00:14:01;;;;;;;25.65;14.90;;;;;;;;;;4821834;29;20057;-64
2022/03/01 00:16:27;;;;;;;26.65;15.18;;;;;;;;;;4832071;29;20484;-64
2022/03/01 00:18:54;;;;;;;25.50;16.02;;;;;;;;;;4832614;29;20141;-64
2022/03/01 00:21:20;;;;;;;24.55;15.30;;;;;;;;;;4812869;29;20054;-63
2022/03/01 00:23:46;;;;;;;25.58;14.35;;;;;;;;;;4837997;29;20049;-63
2022/03/01 00:26:12;;;;;;;23.40;14.90;;;;;;;;;;4826036;29;20074;-64
2022/03/01 00:28:38;;;;;;;25.45;14.52;;;;;;;;;;4825987;29;20046;-63
2022/03/01 00:31:04;;;;;;;24.83;14.65;;;;;;;;;;4825269;29;20058;-63
2022/03/01 00:33:30;;;;;;;24.90;13.80;;;;;;;;;;4827327;29;20455;-63
2022/03/01 00:35:56;;;;;;;;;;;;;;;;;;4830397;29;20047;-64
2022/03/01 00:38:22;;;;;;;25.65;15.00;;;;;;;;;;4838565;29;19925;-64
2022/03/01 00:40:48;;;;;;;27.23;14.40;;;;;;;;;;4828732;29;20403;-63
2022/03/01 00:43:15;;;;;;;25.38;14.98;;;;;;;;;;4828110;29;20487;-63
2022/03/01 00:45:41;;;;;;;24.95;14.43;;;;;;;;;;4825435;29;20062;-64
2022/03/01 00:48:07;;;;;;;22.90;14.32;;;;;;;;;;4825439;29;20083;-63
2022/03/01 00:50:33;;;;;;;24.25;15.20;;;;;;;;;;4828411;29;20418;-64
2022/03/01 00:52:59;;;;;;;23.65;14.38;;;;;;;;;;4838366;29;20516;-64
2022/03/01 00:55:25;;;;;;;24.23;15.07;;;;;;;;;;4843617;29;20618;-64
2022/03/01 00:57:51;;;;;;;24.50;14.07;;;;;;;;;;4825612;29;20137;-64
2022/03/01 01:00:18;;;;;;;23.60;13.65;;;;;;;;;;4846404;29;20058;-64
2022/03/01 01:02:44;;;;;;;25.73;13.95;;;;;;;;;;4844454;29;20057;-64
2022/03/01 01:05:10;;;;;;;23.65;14.20;;;;;;;;;;4843876;29;20145;-64
2022/03/01 01:07:36;;;;;;;23.80;14.73;;;;;;;;;;4843562;29;20050;-64
2022/03/01 01:10:03;;;;;;;23.15;14.27;;;;;;;;;;4809343;29;20061;-63
2022/03/01 01:12:29;;;;;;;23.70;13.88;;;;;;;;;;4839824;29;20130;-64
2022/03/01 01:14:55;;;;;;;24.65;14.25;;;;;;;;;;4825456;29;20046;-64
2022/03/01 01:17:21;;;;;;;24.70;13.88;;;;;;;;;;4826285;29;20050;-64
2022/03/01 01:19:47;;;;;;;24.27;13.65;;;;;;;;;;4825749;29;20046;-64
2022/03/01 01:24:58;;;;;;;23.92;13.70;;;;;;;;;;4825234;29;20419;-64
2022/03/01 01:27:24;;;;;;;27.50;14.02;;;;;;;;;;4825203;29;20453;-64
2022/03/01 01:29:50;;;;;;;22.55;13.68;;;;;;;;;;4825720;29;20050;-64
2022/03/01 01:32:16;;;;;;;23.75;14.20;;;;;;;;;;4825024;29;20491;-64
2022/03/01 01:34:42;;;;;;;23.63;13.43;;;;;;;;;;4809452;29;20506;-64
2022/03/01 01:37:08;;;;;;;21.33;12.63;;;;;;;;;;4824644;29;20415;-64
2022/03/01 01:39:34;;;;;;;24.35;14.73;;;;;;;;;;4825268;29;20062;-64
2022/03/01 01:42:00;;;;;;;23.08;14.50;;;;;;;;;;4824843;29;20411;-64
2022/03/01 01:44:29;;;;;;;24.38;14.63;;;;;;;;;;4828663;29;20152;-64
2022/03/01 01:46:55;;;;;;;24.52;13.55;;;;;;;;;;4843182;29;20053;-65
2022/03/01 01:49:21;;;;;;;23.85;14.02;;;;;;;;;;4843557;29;20058;-64
2022/03/01 01:51:47;;;;;;;24.70;13.60;;;;;;;;;;4829110;29;20094;-63
2022/03/01 01:54:14;;;;;;;21.88;13.07;;;;;;;;;;4827425;29;20065;-63
2022/03/01 01:56:40;;;;;;;23.40;13.68;;;;;;;;;;4822662;29;20522;-63
2022/03/01 01:59:06;;;;;;;25.00;13.77;;;;;;;;;;4836278;29;20476;-63
2022/03/01 02:01:32;;;;;;;23.75;13.13;;;;;;;;;;4806205;29;20058;-63
2022/03/01 02:04:01;;;;;;;24.13;13.85;;;;;;;;;;4836277;29;20058;-64
2022/03/01 02:06:28;;;;;;;24.70;14.40;;;;;;;;;;4822440;29;20054;-63
2022/03/01 02:08:54;;;;;;;24.98;13.98;;;;;;;;;;4822425;29;20058;-63
2022/03/01 02:11:20;;;;;;;23.73;14.05;;;;;;;;;;4822364;29;20054;-63
2022/03/01 02:13:46;;;;;;;22.98;13.75;;;;;;;;;;4822270;29;20050;-63
2022/03/01 02:16:12;;;;;;;26.05;13.70;;;;;;;;;;4822110;29;20491;-64
2022/03/01 02:18:39;;;;;;;23.10;13.30;;;;;;;;;;4822169;29;20057;-64
2022/03/01 02:21:05;;;;;;;21.30;12.82;;;;;;;;;;4821887;29;20050;-63
2022/03/01 02:23:31;;;;;;;23.80;14.43;;;;;;;;;;4821876;29;20492;-63
2022/03/01 02:25:57;;;;;;;22.08;13.75;;;;;;;;;;4822428;29;20373;-63
2022/03/01 02:28:23;;;;;;;22.63;13.30;;;;;;;;;;4822002;29;20050;-64
2022/03/01 02:30:49;;;;;;;23.02;13.45;;;;;;;;;;4821812;29;20050;-63
2022/03/01 02:33:15;;;;;;;22.73;13.32;;;;;;;;;;4820985;29;20054;-63
2022/03/01 02:35:41;;;;;;;24.92;14.25;;;;;;;;;;4821805;29;20187;-64
2022/03/01 02:38:07;;;;;;;22.38;13.00;;;;;;;;;;4821216;29;20057;-64
2022/03/01 02:40:34;;;;;;;24.00;14.63;;;;;;;;;;4822063;29;20138;-63
2022/03/01 02:43:00;;;;;;;22.95;13.38;;;;;;;;;;4821801;29;20137;-64
2022/03/01 02:45:26;;;;;;;24.90;13.63;;;;;;;;;;4821454;29;20069;-63
2022/03/01 02:47:52;;;;;;;24.73;13.02;;;;;;;;;;4821666;29;20054;-63
2022/03/01 02:50:18;;;;;;;21.70;12.82;;;;;;;;;;4821170;29;20095;-63
2022/03/01 02:52:44;;;;;;;23.88;13.88;;;;;;;;;;4804541;29;20058;-63
2022/03/01 02:55:11;;;;;;;23.63;13.60;;;;;;;;;;4834801;29;20054;-63
2022/03/01 02:57:37;;;;;;;21.42;13.35;;;;;;;;;;4821191;29;20051;-63
2022/03/01 03:00:06;;;;;;;29.70;13.73;;;;;;;;;;4821480;29;20188;-63
2022/03/01 03:02:32;;;;;;;24.40;15.00;;;;;;;;;;4820917;29;20054;-63
2022/03/01 03:04:58;;;;;;;25.02;13.57;;;;;;;;;;4804192;29;20424;-63
2022/03/01 03:07:24;;;;;;;22.58;13.65;;;;;;;;;;4820492;29;20456;-63
2022/03/01 03:09:50;;;;;;;;;;;;;;;;;;4821333;29;20054;-63
2022/03/01 03:12:18;;;;;;;26.38;13.68;;;;;;;;;;4804378;29;19932;-63
2022/03/01 03:14:45;;;;;;;22.60;13.35;;;;;;;;;;4820925;29;20118;-63
2022/03/01 03:17:11;;;;;;;25.25;15.10;;;;;;;;;;4820570;29;20495;-63
2022/03/01 03:19:37;;;;;;;24.27;14.40;;;;;;;;;;4820709;29;20448;-63
2022/03/01 03:22:05;;;;;;;22.95;14.45;;;;;;;;;;4820942;29;20210;-63
2022/03/01 03:24:31;;;;;;;25.13;14.75;;;;;;;;;;4821003;29;20348;-62
2022/03/01 03:26:58;;;;;;;21.92;14.13;;;;;;;;;;4820728;29;20054;-63
2022/03/01 03:29:24;;;;;;;25.48;14.50;;;;;;;;;;4820894;29;20050;-63
2022/03/01 03:31:56;;;;;;;23.85;14.68;;;;;;;;;;4821034;29;20070;-63
2022/03/01 03:34:23;;;;;;;24.38;15.20;;;;;;;;;;4820575;29;20203;-63
2022/03/01 03:36:49;;;;;;;24.20;14.70;;;;;;;;;;4820442;29;20082;-63
2022/03/01 03:39:15;;;;;;;24.50;14.30;;;;;;;;;;4820523;29;20420;-62
2022/03/01 03:41:41;;;;;;;23.52;13.95;;;;;;;;;;4820339;29;20054;-62
2022/03/01 03:44:07;;;;;;;25.45;14.85;;;;;;;;;;4820744;29;20046;-62
2022/03/01 03:46:33;;;;;;;24.90;14.50;;;;;;;;;;4820306;29;20141;-63
2022/03/01 03:48:59;;;;;;;;;;;;;;;;;;4820888;29;20054;-63
2022/03/01 03:51:26;;;;;;;25.25;14.55;;;;;;;;;;4823544;29;19947;-62
2022/03/01 03:53:52;;;;;;;24.65;14.70;;;;;;;;;;4823835;29;20058;-63
2022/03/01 03:56:18;;;;;;;;;;;;;;;;;;4824100;29;20364;-63
2022/03/01 03:58:45;;;;;;;25.20;15.40;;;;;;;;;;4824043;29;19929;-62
2022/03/01 04:01:11;;;;;;;23.83;14.88;;;;;;;;;;4823996;29;20137;-62
2022/03/01 04:03:37;;;;;;;25.25;14.85;;;;;;;;;;4823918;29;20423;-63
2022/03/01 04:06:03;;;;;;;24.13;15.15;;;;;;;;;;4823846;29;20131;-62
2022/03/01 04:08:29;;;;;;;24.20;14.93;;;;;;;;;;4823665;29;20520;-62
2022/03/01 04:11:00;;;;;;;24.25;15.02;;;;;;;;;;4837497;29;20114;-62
2022/03/01 04:13:26;;;;;;;26.23;15.75;;;;;;;;;;4823667;29;20415;-63
2022/03/01 04:15:52;;;;;;;24.05;14.43;;;;;;;;;;4823403;29;20058;-62
2022/03/01 04:18:18;;;;;;;26.27;15.18;;;;;;;;;;4823641;29;20073;-63
2022/03/01 04:20:44;;;;;;;26.48;15.30;;;;;;;;;;4823679;29;20475;-62
2022/03/01 04:23:11;;;;;;;29.48;14.95;;;;;;;;;;4837607;29;20138;-62
2022/03/01 04:25:37;;;;;;;;;;;;;;;;;;4823832;29;20126;-63
2022/03/01 04:28:03;;;;;;;24.42;15.00;;;;;;;;;;4823557;29;19932;-63
2022/03/01 04:30:29;;;;;;;25.52;14.88;;;;;;;;;;4837439;29;20058;-62
2022/03/01 04:32:56;;;;;;;25.05;14.48;;;;;;;;;;4823243;29;20054;-62
2022/03/01 04:35:22;;;;;;;27.60;15.95;;;;;;;;;;4823069;29;20054;-63
2022/03/01 04:37:48;;;;;;;24.60;14.65;;;;;;;;;;4823461;29;20062;-63
2022/03/01 04:40:15;;;;;;;27.33;15.85;;;;;;;;;;4823594;29;20161;-62
2022/03/01 04:42:41;;;;;;;28.20;15.15;;;;;;;;;;4823320;29;20050;-63
2022/03/01 04:45:08;;;;;;;26.80;15.85;;;;;;;;;;4823562;29;20069;-62
2022/03/01 04:47:34;;;;;;;27.38;15.30;;;;;;;;;;4823073;29;20169;-63
2022/03/01 04:50:00;;;;;;;24.60;14.57;;;;;;;;;;4823401;29;20210;-63
2022/03/01 04:52:26;;;;;;;26.42;15.90;;;;;;;;;;4822883;29;20380;-62
2022/03/01 04:54:52;;;;;;;29.70;16.05;;;;;;;;;;4823021;29;20047;-62
2022/03/01 04:57:19;;;;;;;24.92;15.48;;;;;;;;;;4823115;29;20062;-64
2022/03/01 04:59:45;;;;;;;26.98;15.05;;;;;;;;;;4823071;29;20054;-63
2022/03/01 05:02:11;;;;;;;27.92;15.70;;;;;;;;;;4822720;29;20425;-63
2022/03/01 05:04:37;;;;;;;25.17;15.45;;;;;;;;;;4823137;29;20352;-64
2022/03/01 05:07:03;;;;;;;25.15;14.95;;;;;;;;;;4823025;29;20058;-62
2022/03/01 05:09:29;;;;;;;26.83;15.15;;;;;;;;;;4822718;29;20061;-62
2022/03/01 05:11:55;;;;;;;27.20;16.45;;;;;;;;;;4822840;29;20379;-63
2022/03/01 05:14:21;;;;;;;26.55;16.00;;;;;;;;;;4823173;29;20050;-63
2022/03/01 05:16:47;;;;;;;25.95;15.50;;;;;;;;;;4822841;29;20553;-62
2022/03/01 05:19:14;;;;;;;26.80;16.17;;;;;;;;;;4822817;29;20054;-63
2022/03/01 05:21:40;;;;;;;26.73;15.85;;;;;;;;;;4822887;29;20133;-62
2022/03/01 05:24:06;;;;;;;27.85;15.43;;;;;;;;;;4822260;29;20138;-62
2022/03/01 05:26:33;;;;;;;29.35;16.10;;;;;;;;;;4806463;29;20137;-63
2022/03/01 05:28:59;;;;;;;30.52;15.52;;;;;;;;;;4822565;29;20054;-63
2022/03/01 05:31:26;;;;;;;28.73;16.98;;;;;;;;;;4822630;29;20507;-63
2022/03/01 05:33:52;;;;;;;;;;;;;;;;;;4823175;29;20061;-62
2022/03/01 05:36:18;;;;;;;26.13;15.20;;;;;;;;;;4822167;29;20358;-62
2022/03/01 05:38:45;;;;;;;25.98;15.48;;;;;;;;;;4822797;29;20062;-63
2022/03/01 05:41:11;;;;;;;24.30;14.82;;;;;;;;;;4836487;29;20148;-62
2022/03/01 05:43:38;;;;;;;26.55;16.38;;;;;;;;;;4822373;29;20501;-63
2022/03/01 05:46:05;;;;;;;29.67;16.45;;;;;;;;;;4822713;29;20360;-63
2022/03/01 05:48:31;;;;;;;28.27;16.20;;;;;;;;;;4821984;29;20365;-63
2022/03/01 05:50:57;;;;;;;27.88;16.23;;;;;;;;;;4822520;29;20050;-62
2022/03/01 05:53:23;;;;;;;;;;;;;;;;;;4822691;29;20150;-63
2022/03/01 05:55:49;;;;;;;27.25;16.45;;;;;;;;;;4822151;29;19961;-63
2022/03/01 05:58:15;;;;;;;32.15;15.98;;;;;;;;;;4835945;29;20046;-63
2022/03/01 06:00:42;;;;;;;28.05;16.20;;;;;;;;;;4822163;29;20138;-62
2022/03/01 06:03:08;;;;;;;26.85;16.45;;;;;;;;;;4822184;29;20050;-62
2022/03/01 06:05:35;;;;;;;27.05;16.45;;;;;;;;;;4822197;29;20114;-62
2022/03/01 06:08:01;;;;;;;26.52;16.13;;;;;;;;;;4822369;29;20146;-61
2022/03/01 06:10:28;;;;;;;29.70;16.00;;;;;;;;;;4821729;29;20127;-63
2022/03/01 06:12:54;;;;;;;28.27;15.98;;;;;;;;;;4820824;29;20208;-62
2022/03/01 06:15:20;;;;;;;27.95;16.70;;;;;;;;;;4820342;29;20155;-62
2022/03/01 06:17:46;;;;;;;;;;;;;;;;;;4820141;29;20054;-62
2022/03/01 06:20:13;;;;;;;27.20;16.15;;;;;;;;;;4819901;29;20420;-63
2022/03/01 06:22:40;;;;;;;29.08;16.33;;;;;;;;;;4820025;29;20050;-62
2022/03/01 06:25:07;;;;;;;28.25;15.98;;;;;;;;;;4833762;29;20201;-62
2022/03/01 06:27:34;;;;;;;30.83;16.60;;;;;;;;;;4820160;29;20137;-62
2022/03/01 06:30:00;;;;;;;31.42;16.42;;;;;;;;;;4819892;29;20195;-62
2022/03/01 06:32:26;;;;;;;31.63;16.45;;;;;;;;;;4819931;29;20105;-62
2022/03/01 06:34:52;;;;;;;34.10;17.15;;;;;;;;;;4819742;29;20050;-62
2022/03/01 06:37:19;;;;;;;33.67;16.30;;;;;;;;;;4819416;29;20073;-62
2022/03/01 06:39:46;;;;;;;33.67;16.88;;;;;;;;;;4820200;29;20199;-62
2022/03/01 06:42:12;;;;;;;33.92;16.77;;;;;;;;;;4819827;29;20081;-62
2022/03/01 06:44:39;;;;;;;35.60;18.00;;;;;;;;;;4819644;29;20095;-62
2022/03/01 06:47:05;;;;;;;;;;;;;;;;;;4834083;29;20050;-62
2022/03/01 06:49:31;;;;;;;28.70;17.42;;;;;;;;;;4802620;29;19924;-63
2022/03/01 06:51:57;;;;;;;;;;;;;;;;;;4819959;29;20085;-62
2022/03/01 06:54:23;;;;;;;29.88;16.98;;;;;;;;;;4802885;29;20089;-62
2022/03/01 06:56:49;;;;;;;28.85;17.63;;;;;;;;;;4819577;29;20456;-62
2022/03/01 06:59:16;;;;;;;29.90;17.45;;;;;;;;;;4819866;29;20514;-62
2022/03/01 07:01:42;;;;;;;29.70;16.65;;;;;;;;;;4819572;29;20111;-62
2022/03/01 07:04:08;;;;;;;29.45;17.08;;;;;;;;;;4819794;29;20050;-62
2022/03/01 07:06:34;;;;;;;28.85;17.02;;;;;;;;;;4819646;29;20114;-63
2022/03/01 07:09:00;;;;;;;32.42;17.38;;;;;;;;;;4819560;29;20088;-63
2022/03/01 07:11:26;;;;;;;29.30;17.73;;;;;;;;;;4819896;29;20479;-62
2022/03/01 07:13:52;;;;;;;27.92;16.75;;;;;;;;;;4819820;29;20122;-62
2022/03/01 07:16:18;;;;;;;31.50;16.88;;;;;;;;;;4819875;29;20086;-62
2022/03/01 07:18:45;;;;;;;37.05;17.40;;;;;;;;;;4803274;29;20458;-62
2022/03/01 07:21:11;;;;;;;27.13;16.60;;;;;;;;;;4819983;29;20119;-62
2022/03/01 07:23:37;;;;;;;31.02;17.25;;;;;;;;;;4819432;29;20173;-63
2022/03/01 07:26:04;;;;;;;28.25;17.58;;;;;;;;;;4819096;29;20054;-62
2022/03/01 07:28:30;;;;;;;27.67;16.20;;;;;;;;;;4819321;29;20365;-62
2022/03/01 07:30:56;;;;;;;28.55;16.85;;;;;;;;;;4819172;29;20435;-63
2022/03/01 07:33:23;;;;;;;29.02;16.33;;;;;;;;;;4819244;29;20090;-63
2022/03/01 07:35:50;;;;;;;28.60;17.17;;;;;;;;;;4818889;29;20122;-63
2022/03/01 07:38:16;;;;;;;28.35;16.05;;;;;;;;;;4832735;29;20115;-63
2022/03/01 07:40:42;;;;;;;31.15;16.98;;;;;;;;;;4819297;29;20065;-63
2022/03/01 07:43:09;;;;;;;29.92;17.23;;;;;;;;;;4819341;29;20081;-63
2022/03/01 07:45:35;;;;;;;32.03;16.85;;;;;;;;;;4819415;29;20101;-63
2022/03/01 07:48:01;;;;;;;;;;;;;;;;;;4819492;29;20448;-62
2022/03/01 07:50:28;;;;;;;30.10;16.85;;;;;;;;;;4819172;29;20032;-63
2022/03/01 07:52:54;;;;;;;30.20;17.23;;;;;;;;;;4819355;29;20387;-63
2022/03/01 07:55:21;;;;;;;31.27;16.88;;;;;;;;;;4818591;29;20447;-61
2022/03/01 07:57:47;;;;;;;;;;;;;;;;;;4833188;29;20141;-63
2022/03/01 08:00:13;;;;;;;27.92;17.02;;;;;;;;;;4819012;29;20291;-63
2022/03/01 08:02:40;;;;;;;30.38;18.70;;;;;;;;;;4818862;29;20119;-63
2022/03/01 08:05:07;;;;;;;28.02;15.73;;;;;;;;;;4819201;29;20471;-63
2022/03/01 08:07:33;;;;;;;31.77;16.33;;;;;;;;;;4819516;29;20113;-63
2022/03/01 08:10:00;;;;;;;31.52;17.10;;;;;;;;;;4818976;29;20110;-63
2022/03/01 08:12:26;;;;;;;27.52;16.80;;;;;;;;;;4819093;29;20050;-62
2022/03/01 08:14:52;;;;;;;33.67;16.70;;;;;;;;;;4819090;29;20047;-62
2022/03/01 08:17:19;;;;;;;30.17;16.60;;;;;;;;;;4819206;29;20068;-63
2022/03/01 08:19:46;;;;;;;31.00;18.00;;;;;;;;;;4819136;29;20070;-63
2022/03/01 08:22:12;;;;;;;29.40;17.00;;;;;;;;;;4818823;29;20444;-62
2022/03/01 08:24:39;;;;;;;30.75;16.95;;;;;;;;;;4832836;29;20050;-62
2022/03/01 08:27:05;;;;;;;30.23;17.15;;;;;;;;;;4819620;29;20425;-63
2022/03/01 08:29:31;;;;;;;34.38;17.67;;;;;;;;;;4833114;29;20345;-63
2022/03/01 08:31:57;;;;;;;28.60;16.73;;;;;;;;;;4819490;29;20118;-62
2022/03/01 08:34:23;;;;;;;33.47;17.80;;;;;;;;;;4819249;29;20121;-62
2022/03/01 08:36:49;;;;;;;27.90;16.55;;;;;;;;;;4819629;29;20089;-63
2022/03/01 08:39:16;;;;;;;27.73;15.75;;;;;;;;;;4822467;29;20066;-62
2022/03/01 08:41:42;;;;;;;28.42;17.13;;;;;;;;;;4822213;29;20054;-63
2022/03/01 08:44:08;;;;;;;31.52;16.10;;;;;;;;;;4822275;29;20121;-62
2022/03/01 08:46:35;;;;;;;29.77;16.77;;;;;;;;;;4805647;29;20126;-63
2022/03/01 08:49:01;;;;;;;32.20;18.23;;;;;;;;;;4821801;29;20137;-63
2022/03/01 08:51:27;;;;;;;31.15;17.38;;;;;;;;;;4822128;29;20046;-62
2022/03/01 08:53:54;;;;;;;29.00;16.75;;;;;;;;;;4821889;29;20133;-62
2022/03/01 08:56:21;;;;;;;29.27;18.00;;;;;;;;;;4821334;29;20411;-62
2022/03/01 08:58:47;;;;;;;29.42;16.67;;;;;;;;;;4821730;29;20051;-63
2022/03/01 09:01:13;;;;;;;;;;;;;;;;;;4822258;29;20082;-61
2022/03/01 09:03:40;;;;;;;28.60;16.92;;;;;;;;;;4821656;29;20019;-61
2022/03/01 09:06:06;;;;;;;;;;;;;;;;;;4821844;29;20054;-62
2022/03/01 09:08:33;;;;;;;27.50;16.85;;;;;;;;;;4821291;29;19948;-62
2022/03/01 09:10:59;;;;;;;30.95;17.50;;;;;;;;;;4821327;29;20050;-64
2022/03/01 09:13:25;;;;;;;32.80;17.30;;;;;;;;;;4821649;29;20054;-62
2022/03/01 09:15:51;;;;;;;29.98;17.77;;;;;;;;;;4821456;29;20087;-64
2022/03/01 09:18:23;;;;;;;30.13;17.30;;;;;;;;;;4821632;29;20046;-63
2022/03/01 09:20:50;;;;;;;28.30;17.23;;;;;;;;;;4821520;29;20146;-64
2022/03/01 09:23:16;;;;;;;;;;;;;;;;;;4822146;29;20046;-62
2022/03/01 09:25:42;;;;;;;31.52;18.02;;;;;;;;;;4821372;29;19947;-62
2022/03/01 09:28:08;;;;;;;30.60;17.67;;;;;;;;;;4820847;29;20050;-62
2022/03/01 09:30:35;;;;;;;30.90;17.73;;;;;;;;;;4821418;29;20085;-62
2022/03/01 09:33:01;;;;;;;27.65;16.92;;;;;;;;;;4821513;29;20149;-61
2022/03/01 09:35:28;;;;;;;32.88;17.98;;;;;;;;;;4821065;29;20421;-63
2022/03/01 09:37:54;;;;;;;32.92;17.67;;;;;;;;;;4820757;29;20198;-64
2022/03/01 09:40:20;;;;;;;29.15;17.00;;;;;;;;;;4821321;29;20058;-63
2022/03/01 09:42:46;;;;;;;30.95;17.58;;;;;;;;;;4820227;29;20050;-63
2022/03/01 09:45:13;;;;;;;27.90;16.88;;;;;;;;;;4821195;29;20046;-63
2022/03/01 09:47:39;;;;;;;30.35;16.30;;;;;;;;;;4820717;29;20102;-63
2022/03/01 09:50:06;;;;;;;32.33;16.67;;;;;;;;;;4821112;29;20081;-63
2022/03/01 09:52:32;;;;;;;34.65;17.20;;;;;;;;;;4835099;29;20089;-62
2022/03/01 09:54:59;;;;;;;29.73;18.10;;;;;;;;;;4821108;29;20053;-63
2022/03/01 09:57:25;;;;;;;28.60;16.67;;;;;;;;;;4821262;29;20062;-62
2022/03/01 09:59:51;;;;;;;33.63;18.08;;;;;;;;;;4820793;29;20404;-62
2022/03/01 10:02:17;;;;;;;29.25;17.10;;;;;;;;;;4834976;29;20367;-63
2022/03/01 10:04:59;;;;;;;31.30;17.80;;;;;;;;;;4821292;29;20148;-63
2022/03/01 10:07:27;;;;;;;33.00;17.63;;;;;;;;;;4821048;29;20057;-63
2022/03/01 10:09:53;;;;;;;31.35;17.17;;;;;;;;;;4821348;29;20138;-63
2022/03/01 10:12:26;;;;;;;28.88;16.98;;;;;;;;;;4820926;29;20129;-63
2022/03/01 10:14:59;;;;;;;32.08;17.30;;;;;;;;;;4820636;29;20086;-62
2022/03/01 10:17:33;;;;;;;35.05;18.02;;;;;;;;;;4820868;29;20142;-62
2022/03/01 10:20:03;;;;;;;27.92;16.95;;;;;;;;;;4820566;29;20160;-63
2022/03/01 10:22:29;;;;;;;29.00;16.35;;;;;;;;;;4820182;29;20566;-62
2022/03/01 10:25:02;;;;;;;29.00;17.42;;;;;;;;;;4820440;29;20042;-62
2022/03/01 10:27:29;;;;;;;29.92;18.40;;;;;;;;;;4833960;29;20062;-64
2022/03/01 10:29:55;;;;;;;29.80;17.63;;;;;;;;;;4820548;29;20402;-62
2022/03/01 10:32:21;;;;;;;27.98;17.67;;;;;;;;;;4820602;29;20065;-63
2022/03/01 10:34:58;;;;;;;33.47;18.02;;;;;;;;;;4820354;29;20115;-63
2022/03/01 10:37:29;;;;;;;30.55;17.80;;;;;;;;;;4819938;29;20483;-63
2022/03/01 10:40:14;;;;;;;29.17;17.95;;;;;;;;;;4820287;29;20440;-63
2022/03/01 10:42:41;;;;;;;27.42;17.52;;;;;;;;;;4820509;29;20161;-63
2022/03/01 10:45:09;;;;;;;28.77;16.83;;;;;;;;;;4820074;29;20076;-61
2022/03/01 10:47:36;;;;;;;29.98;17.10;;;;;;;;;;4834180;29;20077;-63
2022/03/01 10:50:07;;;;;;;37.60;18.95;;;;;;;;;;4819725;29;20572;-62
2022/03/01 10:52:40;;;;;;;28.92;17.33;;;;;;;;;;4819921;29;20550;-62
2022/03/01 10:55:07;;;;;;;29.40;18.58;;;;;;;;;;4820031;29;20128;-62
2022/03/01 10:57:33;;;;;;;30.02;18.90;;;;;;;;;;4819872;29;20050;-62
2022/03/01 11:00:00;;;;;;;31.60;17.40;;;;;;;;;;4819695;29;20488;-62
2022/03/01 11:02:26;;;;;;;29.58;17.17;;;;;;;;;;4819877;29;20060;-62
2022/03/01 11:04:52;;;;;;;32.75;19.13;;;;;;;;;;4819924;29;20050;-62
2022/03/01 11:07:19;;;;;;;26.00;16.38;;;;;;;;;;4819851;29;20065;-62
2022/03/01 11:09:46;;;;;;;31.45;17.23;;;;;;;;;;4819997;29;20115;-62
2022/03/01 11:12:12;;;;;;;31.77;17.45;;;;;;;;;;4819534;29;20066;-61
2022/03/01 11:14:38;;;;;;;27.98;17.70;;;;;;;;;;4820078;29;20073;-62
2022/03/01 11:17:11;;;;;;;28.00;17.52;;;;;;;;;;4819859;29;20380;-64
2022/03/01 11:19:46;;;;;;;31.13;17.55;;;;;;;;;;4819374;29;20054;-61
2022/03/01 11:22:28;;;;;;;30.42;18.63;;;;;;;;;;4820046;29;20050;-61
2022/03/01 11:24:54;;;;;;;30.50;17.50;;;;;;;;;;4819677;29;20050;-62
2022/03/01 11:27:20;;;;;;;;;;;;;;;;;;4820029;29;20108;-63
2022/03/01 11:29:46;;;;;;;30.15;18.08;;;;;;;;;;4819603;29;19967;-62
2022/03/01 11:32:13;;;;;;;31.65;17.35;;;;;;;;;;4819390;29;20110;-62
2022/03/01 11:34:40;;;;;;;31.20;17.30;;;;;;;;;;4819500;29;20225;-62
2022/03/01 11:37:12;;;;;;;29.00;18.02;;;;;;;;;;4820086;29;20058;-63
2022/03/01 11:39:38;;;;;;;33.88;18.75;;;;;;;;;;4819429;29;20436;-62
2022/03/01 11:42:05;;;;;;;32.00;18.20;;;;;;;;;;4819204;29;20089;-63
2022/03/01 11:44:33;;;;;;;30.02;17.25;;;;;;;;;;4819385;29;20149;-62
2022/03/01 11:47:02;;;;;;;32.45;18.60;;;;;;;;;;4819467;29;20050;-63
2022/03/01 11:49:32;;;;;;;29.15;17.88;;;;;;;;;;4819581;29;20097;-62
2022/03/01 11:51:59;;;;;;;28.70;17.45;;;;;;;;;;4820086;29;20062;-63
2022/03/01 11:54:40;;;;;;;31.52;18.27;;;;;;;;;;4819599;29;20046;-63
2022/03/01 11:57:07;;;;;;;30.55;18.20;;;;;;;;;;4819266;29;20058;-62
2022/03/01 11:59:37;;;;;;;30.55;18.42;;;;;;;;;;4802814;29;20062;-63
2022/03/01 12:02:05;;;;;;;31.08;18.52;;;;;;;;;;4819302;29;20095;-62
2022/03/01 12:04:31;;;;;;;30.80;17.60;;;;;;;;;;4832971;29;20054;-63
2022/03/01 12:06:57;;;;;;;30.00;17.85;;;;;;;;;;4832826;29;20105;-63
2022/03/01 12:09:23;;;;;;;;;;;;;;;;;;4819281;29;20055;-63
2022/03/01 12:11:50;;;;;;;30.88;18.20;;;;;;;;;;4821415;29;19940;-63
2022/03/01 12:14:18;;;;;;;29.95;18.33;;;;;;;;;;4822390;29;20123;-63
2022/03/01 12:16:44;;;;;;;30.20;17.48;;;;;;;;;;4822413;29;20077;-63
2022/03/01 12:19:22;;;;;;;35.47;19.85;;;;;;;;;;4836441;29;20399;-64
2022/03/01 12:21:49;;;;;;;31.02;18.50;;;;;;;;;;4822644;29;20322;-63
2022/03/01 12:24:16;;;;;;;31.38;17.85;;;;;;;;;;4822123;29;20127;-63
2022/03/01 12:26:49;;;;;;;32.08;18.88;;;;;;;;;;4822483;29;20054;-63
2022/03/01 12:29:17;;;;;;;31.65;18.05;;;;;;;;;;4822172;29;20066;-64
2022/03/01 12:31:43;;;;;;;33.92;19.52;;;;;;;;;;4836126;29;20142;-64
2022/03/01 12:34:10;;;;;;;31.25;19.23;;;;;;;;;;4822009;29;20051;-63
2022/03/01 12:36:37;;;;;;;34.22;18.98;;;;;;;;;;4821529;29;20118;-63
2022/03/01 12:39:08;;;;;;;30.13;18.95;;;;;;;;;;4821825;29;20144;-63
2022/03/01 12:41:35;;;;;;;30.55;17.80;;;;;;;;;;4821458;29;20061;-63
2022/03/01 12:44:01;;;;;;;;;;;;;;;;;;4822022;29;20107;-63
2022/03/01 12:46:28;;;;;;;31.65;18.63;;;;;;;;;;4821386;29;20001;-63
2022/03/01 12:48:55;;;;;;;32.50;19.55;;;;;;;;;;4822335;29;20460;-63
2022/03/01 12:51:22;;;;;;;31.65;19.70;;;;;;;;;;4836076;29;20448;-64
2022/03/01 12:53:56;;;;;;;31.08;18.83;;;;;;;;;;4805117;29;20047;-65
2022/03/01 12:56:23;;;;;;;32.75;19.52;;;;;;;;;;4821042;29;20054;-63
2022/03/01 12:58:52;;;;;;;32.45;19.83;;;;;;;;;;4821314;29;20054;-63
2022/03/01 13:01:18;;;;;;;31.92;18.27;;;;;;;;;;4804927;29;20090;-63
2022/03/01 13:03:47;;;;;;;32.15;19.35;;;;;;;;;;4821475;29;20054;-64
2022/03/01 13:06:15;;;;;;;33.53;19.73;;;;;;;;;;4821630;29;20054;-63
2022/03/01 13:08:42;;;;;;;33.45;19.92;;;;;;;;;;4821364;29;20058;-63
2022/03/01 13:11:09;;;;;;;31.02;19.98;;;;;;;;;;4821331;29;20134;-64
2022/03/01 13:13:44;;;;;;;36.05;20.33;;;;;;;;;;4821248;29;20167;-63
2022/03/01 13:16:10;;;;;;;33.33;19.50;;;;;;;;;;4821060;29;20137;-63
2022/03/01 13:18:36;;;;;;;30.77;18.92;;;;;;;;;;4821598;29;20157;-63
2022/03/01 13:21:02;;;;;;;34.50;19.35;;;;;;;;;;4835344;29;20073;-63
2022/03/01 13:23:30;;;;;;;34.22;19.52;;;;;;;;;;4820589;29;20635;-63
2022/03/01 13:25:57;;;;;;;34.22;18.92;;;;;;;;;;4821344;29;20062;-63
2022/03/01 13:28:34;;;;;;;33.47;19.17;;;;;;;;;;4820904;29;20147;-64
2022/03/01 13:31:00;;;;;;;34.30;19.77;;;;;;;;;;4821527;29;20066;-63
2022/03/01 13:33:28;;;;;;;35.58;20.55;;;;;;;;;;4821013;29;20070;-63
2022/03/01 13:35:54;;;;;;;31.88;19.77;;;;;;;;;;4834611;29;20498;-63
2022/03/01 13:38:20;;;;;;;;;;;;;;;;;;4821078;29;20062;-63
2022/03/01 13:40:46;;;;;;;33.45;19.13;;;;;;;;;;4821212;29;20373;-63
2022/03/01 13:43:14;;;;;;;30.80;18.75;;;;;;;;;;4821310;29;20065;-63
2022/03/01 13:45:41;;;;;;;33.75;19.38;;;;;;;;;;4821056;29;20321;-63
2022/03/01 13:48:15;;;;;;;36.45;19.60;;;;;;;;;;4820764;29;20050;-63
2022/03/01 13:50:42;;;;;;;35.80;20.30;;;;;;;;;;4820895;29;20054;-64
2022/03/01 13:53:10;;;;;;;35.90;20.42;;;;;;;;;;4821097;29;20173;-63
2022/03/01 13:55:36;;;;;;;32.55;20.45;;;;;;;;;;4820595;29;20050;-63
2022/03/01 13:58:03;;;;;;;34.10;21.52;;;;;;;;;;4821131;29;20054;-63
2022/03/01 14:00:29;;;;;;;;;;;;;;;;;;4821317;29;20097;-63
2022/03/01 14:03:00;;;;;;;31.73;19.42;;;;;;;;;;4819492;29;20048;-63
2022/03/01 14:05:26;;;;;;;40.53;21.65;;;;;;;;;;4821112;29;20103;-63
2022/03/01 14:08:12;;;;;;;34.88;19.77;;;;;;;;;;4821076;29;20073;-64
2022/03/01 14:10:41;;;;;;;34.33;20.05;;;;;;;;;;4821058;29;20199;-64
2022/03/01 14:13:17;;;;;;;36.25;20.58;;;;;;;;;;4820712;29;20216;-64
2022/03/01 14:15:45;;;;;;;37.00;21.15;;;;;;;;;;4820430;29;20054;-63
2022/03/01 14:18:12;;;;;;;33.90;20.30;;;;;;;;;;4820711;29;20133;-64
2022/03/01 14:20:38;;;;;;;36.17;21.33;;;;;;;;;;4820403;29;20081;-64
2022/03/01 14:23:05;;;;;;;43.25;27.52;;;;;;;;;;4820479;29;20074;-64
2022/03/01 14:25:31;;;;;;;35.63;20.85;;;;;;;;;;4803785;29;20352;-63